sensor_id;sensor_type;location;lat;lon;timestamp;pressure;altitude;pressure_sealevel;temperature;humidity
46111;BME280;31849;55.992;37.252;2023-08-24T00:01:38;98607.88;;;16.80;67.74
46111;BME280;31849;55.992;37.252;2023-08-24T00:06:42;98610.16;;;16.67;67.98
46111;BME280;31849;55.992;37.252;2023-08-24T00:11:45;98622.50;;;16.65;68.16
46111;BME280;31849;55.992;37.252;2023-08-24T00:16:50;98625.06;;;16.66;68.13
46111;BME280;31849;55.992;37.252;2023-08-24T00:21:54;98626.47;;;16.53;68.38
46111;BME280;31849;55.992;37.252;2023-08-24T00:26:57;98625.91;;;16.45;68.35
46111;BME280;31849;55.992;37.252;2023-08-24T00:32:03;98630.50;;;16.40;68.79
46111;BME280;31849;55.992;37.252;2023-08-24T00:37:06;98624.81;;;16.28;68.91
46111;BME280;31849;55.992;37.252;2023-08-24T00:42:10;98635.50;;;16.24;68.99
46111;BME280;31849;55.992;37.252;2023-08-24T00:47:18;98623.25;;;16.24;69.01
46111;BME280;31849;55.992;37.252;2023-08-24T00:52:25;98631.38;;;16.16;69.09
46111;BME280;31849;55.992;37.252;2023-08-24T00:57:31;98629.13;;;16.07;69.10
46111;BME280;31849;55.992;37.252;2023-08-24T01:02:37;98624.84;;;16.05;69.10
46111;BME280;31849;55.992;37.252;2023-08-24T01:07:41;98631.03;;;16.04;68.73
46111;BME280;31849;55.992;37.252;2023-08-24T01:12:59;98622.56;;;16.19;68.30
46111;BME280;31849;55.992;37.252;2023-08-24T01:18:11;98629.13;;;16.07;68.52
46111;BME280;31849;55.992;37.252;2023-08-24T01:23:33;98628.28;;;16.07;68.37
46111;BME280;31849;55.992;37.252;2023-08-24T01:28:42;98636.16;;;16.07;68.40
46111;BME280;31849;55.992;37.252;2023-08-24T01:33:46;98644.81;;;16.09;68.03
46111;BME280;31849;55.992;37.252;2023-08-24T01:38:56;98640.63;;;16.27;67.89
46111;BME280;31849;55.992;37.252;2023-08-24T01:44:03;98647.88;;;16.20;67.92
46111;BME280;31849;55.992;37.252;2023-08-24T01:49:08;98645.50;;;16.14;67.84
46111;BME280;31849;55.992;37.252;2023-08-24T01:54:12;98649.69;;;16.18;67.42
46111;BME280;31849;55.992;37.252;2023-08-24T01:59:18;98645.50;;;16.14;67.49
46111;BME280;31849;55.992;37.252;2023-08-24T02:04:21;98642.34;;;16.04;67.44
46111;BME280;31849;55.992;37.252;2023-08-24T02:09:25;98645.75;;;16.08;67.44
46111;BME280;31849;55.992;37.252;2023-08-24T02:14:30;98647.31;;;16.12;67.33
46111;BME280;31849;55.992;37.252;2023-08-24T02:19:53;98646.28;;;16.16;66.75
46111;BME280;31849;55.992;37.252;2023-08-24T02:24:56;98644.38;;;15.97;67.38
46111;BME280;31849;55.992;37.252;2023-08-24T02:30:01;98648.69;;;15.98;67.32
46111;BME280;31849;55.992;37.252;2023-08-24T02:35:07;98643.56;;;15.95;67.35
46111;BME280;31849;55.992;37.252;2023-08-24T02:40:11;98639.28;;;15.93;67.48
46111;BME280;31849;55.992;37.252;2023-08-24T02:45:16;98647.78;;;15.99;67.21
46111;BME280;31849;55.992;37.252;2023-08-24T02:50:20;98653.13;;;15.96;67.19
46111;BME280;31849;55.992;37.252;2023-08-24T02:55:23;98647.78;;;15.99;66.90
46111;BME280;31849;55.992;37.252;2023-08-24T03:00:28;98659.81;;;16.05;67.09
46111;BME280;31849;55.992;37.252;2023-08-24T03:05:32;98652.91;;;16.03;67.16
46111;BME280;31849;55.992;37.252;2023-08-24T03:10:35;98646.63;;;16.07;67.06
46111;BME280;31849;55.992;37.252;2023-08-24T03:15:40;98651.69;;;16.11;66.75
46111;BME280;31849;55.992;37.252;2023-08-24T03:20:44;98647.59;;;16.04;66.57
46111;BME280;31849;55.992;37.252;2023-08-24T03:25:48;98657.56;;;16.18;66.31
46111;BME280;31849;55.992;37.252;2023-08-24T03:30:53;98653.38;;;16.14;66.50
46111;BME280;31849;55.992;37.252;2023-08-24T03:35:57;98660.53;;;16.09;66.61
46111;BME280;31849;55.992;37.252;2023-08-24T03:41:01;98664.22;;;16.27;66.17
46111;BME280;31849;55.992;37.252;2023-08-24T03:46:06;98662.66;;;16.45;65.72
46111;BME280;31849;55.992;37.252;2023-08-24T03:51:10;98666.75;;;16.52;65.64
46111;BME280;31849;55.992;37.252;2023-08-24T03:56:13;98667.19;;;16.63;64.83
46111;BME280;31849;55.992;37.252;2023-08-24T04:01:18;98670.00;;;16.59;65.20
46111;BME280;31849;55.992;37.252;2023-08-24T04:06:22;98671.78;;;16.58;65.07
46111;BME280;31849;55.992;37.252;2023-08-24T04:11:26;98673.28;;;16.64;64.78
46111;BME280;31849;55.992;37.252;2023-08-24T04:16:30;98672.75;;;16.78;64.56
46111;BME280;31849;55.992;37.252;2023-08-24T04:21:34;98677.53;;;16.90;64.25
46111;BME280;31849;55.992;37.252;2023-08-24T04:26:38;98673.03;;;17.35;62.67
46111;BME280;31849;55.992;37.252;2023-08-24T04:31:42;98677.72;;;17.68;61.99
46111;BME280;31849;55.992;37.252;2023-08-24T04:36:46;98688.72;;;17.78;61.40
46111;BME280;31849;55.992;37.252;2023-08-24T04:41:50;98692.25;;;17.97;61.04
46111;BME280;31849;55.992;37.252;2023-08-24T04:46:55;98697.50;;;17.97;60.71
46111;BME280;31849;55.992;37.252;2023-08-24T04:51:59;98693.50;;;17.68;60.87
46111;BME280;31849;55.992;37.252;2023-08-24T04:57:03;98691.50;;;17.54;60.88
46111;BME280;31849;55.992;37.252;2023-08-24T05:02:08;98694.25;;;17.71;60.56
46111;BME280;31849;55.992;37.252;2023-08-24T05:07:11;98690.50;;;18.17;59.58
46111;BME280;31849;55.992;37.252;2023-08-24T05:12:15;98690.19;;;18.61;57.95
46111;BME280;31849;55.992;37.252;2023-08-24T05:17:20;98696.25;;;18.25;58.92
46111;BME280;31849;55.992;37.252;2023-08-24T05:22:27;98692.25;;;17.76;59.63
46111;BME280;31849;55.992;37.252;2023-08-24T05:27:31;98700.34;;;17.72;59.62
46111;BME280;31849;55.992;37.252;2023-08-24T05:32:36;98696.28;;;17.65;59.96
46111;BME280;31849;55.992;37.252;2023-08-24T05:37:41;98699.25;;;17.57;60.05
46111;BME280;31849;55.992;37.252;2023-08-24T05:42:45;98703.44;;;17.61;60.09
46111;BME280;31849;55.992;37.252;2023-08-24T05:47:50;98693.19;;;17.75;60.06
46111;BME280;31849;55.992;37.252;2023-08-24T05:52:54;98699.22;;;17.98;59.51
46111;BME280;31849;55.992;37.252;2023-08-24T05:57:58;98710.47;;;18.21;58.64
46111;BME280;31849;55.992;37.252;2023-08-24T06:03:03;98707.50;;;18.28;58.30
46111;BME280;31849;55.992;37.252;2023-08-24T06:08:07;98713.97;;;18.02;58.87
46111;BME280;31849;55.992;37.252;2023-08-24T06:13:11;98707.25;;;17.74;59.19
46111;BME280;31849;55.992;37.252;2023-08-24T06:18:15;98723.22;;;17.70;59.23
46111;BME280;31849;55.992;37.252;2023-08-24T06:23:19;98727.63;;;17.90;59.06
46111;BME280;31849;55.992;37.252;2023-08-24T06:28:23;98728.44;;;17.92;58.57
46111;BME280;31849;55.992;37.252;2023-08-24T06:33:29;98730.06;;;17.74;59.17
46111;BME280;31849;55.992;37.252;2023-08-24T06:38:33;98741.88;;;17.43;60.01
46111;BME280;31849;55.992;37.252;2023-08-24T06:43:37;98745.84;;;17.53;59.82
46111;BME280;31849;55.992;37.252;2023-08-24T06:48:42;98739.75;;;17.31;60.11
46111;BME280;31849;55.992;37.252;2023-08-24T06:53:46;98744.41;;;17.24;60.37
46111;BME280;31849;55.992;37.252;2023-08-24T06:58:50;98751.34;;;17.04;60.83
46111;BME280;31849;55.992;37.252;2023-08-24T07:03:55;98759.22;;;17.47;60.15
46111;BME280;31849;55.992;37.252;2023-08-24T07:09:00;98762.56;;;17.30;59.77
46111;BME280;31849;55.992;37.252;2023-08-24T07:14:07;98754.25;;;17.19;60.17
46111;BME280;31849;55.992;37.252;2023-08-24T07:19:12;98752.88;;;17.31;59.59
46111;BME280;31849;55.992;37.252;2023-08-24T07:24:18;98762.19;;;17.81;58.36
46111;BME280;31849;55.992;37.252;2023-08-24T07:29:40;98766.00;;;18.15;57.81
46111;BME280;31849;55.992;37.252;2023-08-24T07:34:45;98771.19;;;18.16;57.55
46111;BME280;31849;55.992;37.252;2023-08-24T07:39:48;98779.66;;;18.23;57.50
46111;BME280;31849;55.992;37.252;2023-08-24T07:44:52;98780.00;;;18.15;57.12
46111;BME280;31849;55.992;37.252;2023-08-24T07:49:59;98774.59;;;18.18;57.08
46111;BME280;31849;55.992;37.252;2023-08-24T07:55:05;98781.19;;;18.48;56.44
46111;BME280;31849;55.992;37.252;2023-08-24T08:00:10;98784.72;;;18.08;57.11
46111;BME280;31849;55.992;37.252;2023-08-24T08:05:17;98770.94;;;17.81;57.43
46111;BME280;31849;55.992;37.252;2023-08-24T08:10:20;98784.69;;;17.88;57.21
46111;BME280;31849;55.992;37.252;2023-08-24T08:15:24;98789.03;;;17.68;57.27
46111;BME280;31849;55.992;37.252;2023-08-24T08:20:30;98782.03;;;17.67;57.36
46111;BME280;31849;55.992;37.252;2023-08-24T08:25:34;98776.00;;;17.65;57.30
46111;BME280;31849;55.992;37.252;2023-08-24T08:30:37;98786.28;;;17.92;56.88
46111;BME280;31849;55.992;37.252;2023-08-24T08:35:43;98780.81;;;18.36;56.07
46111;BME280;31849;55.992;37.252;2023-08-24T08:40:48;98782.25;;;18.62;54.86
46111;BME280;31849;55.992;37.252;2023-08-24T08:45:55;98782.00;;;18.88;54.09
46111;BME280;31849;55.992;37.252;2023-08-24T08:51:00;98785.84;;;19.54;53.19
46111;BME280;31849;55.992;37.252;2023-08-24T08:56:06;98779.91;;;19.85;51.81
46111;BME280;31849;55.992;37.252;2023-08-24T09:01:10;98786.44;;;19.95;51.41
46111;BME280;31849;55.992;37.252;2023-08-24T09:06:16;98786.72;;;19.89;51.12
46111;BME280;31849;55.992;37.252;2023-08-24T09:11:20;98795.09;;;19.08;53.15
46111;BME280;31849;55.992;37.252;2023-08-24T09:16:29;98800.44;;;19.07;52.42
46111;BME280;31849;55.992;37.252;2023-08-24T09:21:36;98802.50;;;18.81;53.08
46111;BME280;31849;55.992;37.252;2023-08-24T09:26:41;98807.91;;;18.97;52.60
46111;BME280;31849;55.992;37.252;2023-08-24T09:31:45;98813.72;;;18.66;52.97
46111;BME280;31849;55.992;37.252;2023-08-24T09:36:50;98816.81;;;18.36;53.64
46111;BME280;31849;55.992;37.252;2023-08-24T09:41:54;98829.41;;;18.29;53.85
46111;BME280;31849;55.992;37.252;2023-08-24T09:46:58;98816.16;;;18.51;53.49
46111;BME280;31849;55.992;37.252;2023-08-24T09:52:06;98813.44;;;18.53;52.67
46111;BME280;31849;55.992;37.252;2023-08-24T09:57:10;98818.41;;;18.40;53.10
46111;BME280;31849;55.992;37.252;2023-08-24T10:02:17;98820.19;;;18.77;51.97
46111;BME280;31849;55.992;37.252;2023-08-24T10:07:25;98818.44;;;18.97;51.40
46111;BME280;31849;55.992;37.252;2023-08-24T10:12:35;98813.44;;;19.29;50.38
46111;BME280;31849;55.992;37.252;2023-08-24T10:17:40;98824.16;;;18.88;50.78
46111;BME280;31849;55.992;37.252;2023-08-24T10:22:46;98817.03;;;18.90;51.22
46111;BME280;31849;55.992;37.252;2023-08-24T10:27:51;98822.84;;;19.15;50.55
46111;BME280;31849;55.992;37.252;2023-08-24T10:32:57;98821.91;;;19.53;49.79
46111;BME280;31849;55.992;37.252;2023-08-24T10:38:03;98825.09;;;19.77;49.51
46111;BME280;31849;55.992;37.252;2023-08-24T10:43:06;98822.75;;;19.54;49.86
46111;BME280;31849;55.992;37.252;2023-08-24T10:48:10;98820.16;;;20.06;48.67
46111;BME280;31849;55.992;37.252;2023-08-24T10:53:37;98825.16;;;20.46;48.33
46111;BME280;31849;55.992;37.252;2023-08-24T10:58:41;98822.81;;;20.39;47.58
46111;BME280;31849;55.992;37.252;2023-08-24T11:03:49;98828.91;;;20.24;47.77
46111;BME280;31849;55.992;37.252;2023-08-24T11:09:07;98831.84;;;20.35;47.42
46111;BME280;31849;55.992;37.252;2023-08-24T11:14:16;98838.94;;;20.51;46.96
46111;BME280;31849;55.992;37.252;2023-08-24T11:19:21;98838.44;;;20.60;46.93
46111;BME280;31849;55.992;37.252;2023-08-24T11:24:26;98830.00;;;20.71;46.94
46111;BME280;31849;55.992;37.252;2023-08-24T11:29:30;98833.34;;;20.90;46.64
46111;BME280;31849;55.992;37.252;2023-08-24T11:34:34;98834.66;;;21.46;45.40
46111;BME280;31849;55.992;37.252;2023-08-24T11:39:45;98833.22;;;21.40;44.82
46111;BME280;31849;55.992;37.252;2023-08-24T11:44:50;98826.19;;;21.08;45.82
46111;BME280;31849;55.992;37.252;2023-08-24T11:49:53;98834.34;;;21.52;45.66
46111;BME280;31849;55.992;37.252;2023-08-24T11:54:59;98828.50;;;21.45;44.83
46111;BME280;31849;55.992;37.252;2023-08-24T12:00:06;98832.13;;;21.12;46.07
46111;BME280;31849;55.992;37.252;2023-08-24T12:05:20;98824.00;;;21.63;44.93
46111;BME280;31849;55.992;37.252;2023-08-24T12:10:26;98825.09;;;21.89;44.14
46111;BME280;31849;55.992;37.252;2023-08-24T12:15:30;98825.53;;;22.12;42.24
46111;BME280;31849;55.992;37.252;2023-08-24T12:20:33;98822.50;;;22.04;42.35
46111;BME280;31849;55.992;37.252;2023-08-24T12:25:42;98830.84;;;22.12;42.15
46111;BME280;31849;55.992;37.252;2023-08-24T12:30:47;98829.13;;;21.81;42.62
46111;BME280;31849;55.992;37.252;2023-08-24T12:35:52;98824.28;;;21.26;43.40
46111;BME280;31849;55.992;37.252;2023-08-24T12:40:57;98826.34;;;21.21;44.01
46111;BME280;31849;55.992;37.252;2023-08-24T12:46:00;98823.69;;;20.89;43.77
46111;BME280;31849;55.992;37.252;2023-08-24T12:51:04;98819.53;;;21.01;43.64
46111;BME280;31849;55.992;37.252;2023-08-24T12:56:09;98826.00;;;21.12;43.60
46111;BME280;31849;55.992;37.252;2023-08-24T13:01:13;98825.66;;;21.02;43.49
46111;BME280;31849;55.992;37.252;2023-08-24T13:06:21;98831.19;;;20.81;43.75
46111;BME280;31849;55.992;37.252;2023-08-24T13:11:27;98829.31;;;20.83;43.82
46111;BME280;31849;55.992;37.252;2023-08-24T13:16:30;98829.34;;;20.99;43.49
46111;BME280;31849;55.992;37.252;2023-08-24T13:21:34;98822.69;;;21.08;43.70
46111;BME280;31849;55.992;37.252;2023-08-24T13:26:39;98827.19;;;21.06;43.22
46111;BME280;31849;55.992;37.252;2023-08-24T13:31:43;98822.41;;;20.97;43.19
46111;BME280;31849;55.992;37.252;2023-08-24T13:36:46;98821.06;;;20.56;43.72
46111;BME280;31849;55.992;37.252;2023-08-24T13:41:51;98822.25;;;20.50;44.26
46111;BME280;31849;55.992;37.252;2023-08-24T13:46:55;98810.16;;;20.46;44.18
46111;BME280;31849;55.992;37.252;2023-08-24T13:51:59;98817.31;;;20.60;43.72
46111;BME280;31849;55.992;37.252;2023-08-24T13:57:04;98827.19;;;20.74;43.06
46111;BME280;31849;55.992;37.252;2023-08-24T14:02:07;98829.50;;;20.63;42.66
46111;BME280;31849;55.992;37.252;2023-08-24T14:07:11;98828.81;;;20.43;42.31
46111;BME280;31849;55.992;37.252;2023-08-24T14:12:18;98830.69;;;20.57;42.44
46111;BME280;31849;55.992;37.252;2023-08-24T14:17:22;98838.28;;;20.47;42.17
46111;BME280;31849;55.992;37.252;2023-08-24T14:22:26;98838.81;;;20.36;42.42
46111;BME280;31849;55.992;37.252;2023-08-24T14:27:31;98838.22;;;20.31;42.83
46111;BME280;31849;55.992;37.252;2023-08-24T14:32:35;98835.97;;;20.24;42.42
46111;BME280;31849;55.992;37.252;2023-08-24T14:37:39;98832.19;;;19.94;42.65
46111;BME280;31849;55.992;37.252;2023-08-24T14:42:59;98833.03;;;19.95;42.12
46111;BME280;31849;55.992;37.252;2023-08-24T14:48:03;98831.00;;;19.65;44.21
46111;BME280;31849;55.992;37.252;2023-08-24T14:53:07;98831.97;;;19.81;44.33
46111;BME280;31849;55.992;37.252;2023-08-24T14:58:11;98833.59;;;19.30;45.88
46111;BME280;31849;55.992;37.252;2023-08-24T15:03:15;98837.09;;;19.11;45.87
46111;BME280;31849;55.992;37.252;2023-08-24T15:08:20;98839.72;;;19.11;46.14
46111;BME280;31849;55.992;37.252;2023-08-24T15:13:25;98844.09;;;19.12;46.86
46111;BME280;31849;55.992;37.252;2023-08-24T15:18:29;98850.34;;;19.10;47.19
46111;BME280;31849;55.992;37.252;2023-08-24T15:23:33;98850.03;;;19.16;45.84
46111;BME280;31849;55.992;37.252;2023-08-24T15:29:07;98840.84;;;19.25;45.73
46111;BME280;31849;55.992;37.252;2023-08-24T15:34:12;98838.66;;;19.15;45.55
46111;BME280;31849;55.992;37.252;2023-08-24T15:39:15;98850.03;;;19.16;46.52
46111;BME280;31849;55.992;37.252;2023-08-24T15:44:20;98838.16;;;19.07;47.71
46111;BME280;31849;55.992;37.252;2023-08-24T15:49:24;98850.84;;;18.99;47.27
46111;BME280;31849;55.992;37.252;2023-08-24T15:54:27;98856.94;;;18.80;48.36
46111;BME280;31849;55.992;37.252;2023-08-24T15:59:33;98852.59;;;18.79;49.08
46111;BME280;31849;55.992;37.252;2023-08-24T16:04:37;98856.84;;;18.63;47.92
46111;BME280;31849;55.992;37.252;2023-08-24T16:09:40;98842.22;;;18.37;48.16
46111;BME280;31849;55.992;37.252;2023-08-24T16:14:45;98858.72;;;18.40;48.41
46111;BME280;31849;55.992;37.252;2023-08-24T16:19:49;98858.50;;;18.26;47.76
46111;BME280;31849;55.992;37.252;2023-08-24T16:24:52;98864.41;;;18.10;47.99
46111;BME280;31849;55.992;37.252;2023-08-24T16:29:57;98869.03;;;18.05;48.29
46111;BME280;31849;55.992;37.252;2023-08-24T16:35:01;98863.47;;;17.91;48.62
46111;BME280;31849;55.992;37.252;2023-08-24T16:40:06;98866.22;;;17.88;49.44
46111;BME280;31849;55.992;37.252;2023-08-24T16:45:15;98866.53;;;17.80;48.97
46111;BME280;31849;55.992;37.252;2023-08-24T16:50:19;98874.00;;;17.47;50.59
46111;BME280;31849;55.992;37.252;2023-08-24T16:55:22;98878.94;;;17.32;51.09
46111;BME280;31849;55.992;37.252;2023-08-24T17:00:28;98875.22;;;17.16;52.00
46111;BME280;31849;55.992;37.252;2023-08-24T17:05:34;98876.94;;;16.93;52.73
46111;BME280;31849;55.992;37.252;2023-08-24T17:10:38;98884.44;;;16.79;53.97
46111;BME280;31849;55.992;37.252;2023-08-24T17:15:43;98882.47;;;16.62;52.86
46111;BME280;31849;55.992;37.252;2023-08-24T17:20:51;98884.84;;;16.19;55.98
46111;BME280;31849;55.992;37.252;2023-08-24T17:25:54;98895.34;;;15.92;57.02
46111;BME280;31849;55.992;37.252;2023-08-24T17:30:59;98891.59;;;15.73;57.72
46111;BME280;31849;55.992;37.252;2023-08-24T17:36:04;98895.66;;;15.55;58.37
46111;BME280;31849;55.992;37.252;2023-08-24T17:41:07;98893.75;;;15.32;59.11
46111;BME280;31849;55.992;37.252;2023-08-24T17:46:12;98892.47;;;15.17;59.74
46111;BME280;31849;55.992;37.252;2023-08-24T17:51:16;98903.47;;;15.00;60.36
46111;BME280;31849;55.992;37.252;2023-08-24T17:56:20;98891.06;;;14.75;60.75
46111;BME280;31849;55.992;37.252;2023-08-24T18:01:26;98909.38;;;14.75;60.47
46111;BME280;31849;55.992;37.252;2023-08-24T18:06:29;98907.38;;;14.52;61.47
46111;BME280;31849;55.992;37.252;2023-08-24T18:11:34;98910.16;;;14.46;61.84
46111;BME280;31849;55.992;37.252;2023-08-24T18:16:39;98914.78;;;14.36;62.53
46111;BME280;31849;55.992;37.252;2023-08-24T18:21:43;98920.38;;;14.22;62.73
46111;BME280;31849;55.992;37.252;2023-08-24T18:26:47;98915.50;;;14.08;62.81
46111;BME280;31849;55.992;37.252;2023-08-24T18:31:52;98911.31;;;14.01;63.24
46111;BME280;31849;55.992;37.252;2023-08-24T18:36:56;98919.53;;;13.87;62.93
46111;BME280;31849;55.992;37.252;2023-08-24T18:42:00;98918.19;;;13.70;63.66
46111;BME280;31849;55.992;37.252;2023-08-24T18:47:05;98924.34;;;13.66;63.43
46111;BME280;31849;55.992;37.252;2023-08-24T18:52:09;98921.16;;;13.53;63.86
46111;BME280;31849;55.992;37.252;2023-08-24T18:57:14;98932.63;;;13.46;63.44
46111;BME280;31849;55.992;37.252;2023-08-24T19:02:19;98922.19;;;13.46;64.40
46111;BME280;31849;55.992;37.252;2023-08-24T19:07:22;98927.59;;;13.39;64.14
46111;BME280;31849;55.992;37.252;2023-08-24T19:12:26;98936.41;;;13.31;63.93
46111;BME280;31849;55.992;37.252;2023-08-24T19:17:31;98929.63;;;13.26;64.39
46111;BME280;31849;55.992;37.252;2023-08-24T19:22:34;98941.19;;;13.14;64.46
46111;BME280;31849;55.992;37.252;2023-08-24T19:27:38;98929.09;;;13.08;64.34
46111;BME280;31849;55.992;37.252;2023-08-24T19:32:44;98937.84;;;13.06;64.44
46111;BME280;31849;55.992;37.252;2023-08-24T19:37:48;98938.19;;;12.90;65.00
46111;BME280;31849;55.992;37.252;2023-08-24T19:42:52;98936.69;;;12.78;65.11
46111;BME280;31849;55.992;37.252;2023-08-24T19:47:57;98937.59;;;12.76;65.35
46111;BME280;31849;55.992;37.252;2023-08-24T19:53:01;98932.50;;;12.70;65.38
46111;BME280;31849;55.992;37.252;2023-08-24T19:58:04;98937.91;;;12.60;65.22
46111;BME280;31849;55.992;37.252;2023-08-24T20:03:10;98936.38;;;12.48;65.18
46111;BME280;31849;55.992;37.252;2023-08-24T20:08:14;98944.44;;;12.35;65.62
46111;BME280;31849;55.992;37.252;2023-08-24T20:13:18;98945.34;;;12.32;65.71
46111;BME280;31849;55.992;37.252;2023-08-24T20:18:24;98945.41;;;12.29;65.91
46111;BME280;31849;55.992;37.252;2023-08-24T20:23:29;98937.75;;;12.20;65.91
46111;BME280;31849;55.992;37.252;2023-08-24T20:28:32;98955.13;;;12.19;66.20
46111;BME280;31849;55.992;37.252;2023-08-24T20:33:40;98950.75;;;12.21;66.06
46111;BME280;31849;55.992;37.252;2023-08-24T20:38:43;98954.34;;;12.14;66.13
46111;BME280;31849;55.992;37.252;2023-08-24T20:43:47;98951.00;;;12.07;66.11
46111;BME280;31849;55.992;37.252;2023-08-24T20:48:52;98948.38;;;12.09;66.34
46111;BME280;31849;55.992;37.252;2023-08-24T20:53:57;98954.53;;;12.03;65.87
46111;BME280;31849;55.992;37.252;2023-08-24T20:59:01;98954.59;;;12.00;66.23
46111;BME280;31849;55.992;37.252;2023-08-24T21:04:08;98961.56;;;11.98;66.50
46111;BME280;31849;55.992;37.252;2023-08-24T21:09:11;98965.97;;;11.91;66.16
46111;BME280;31849;55.992;37.252;2023-08-24T21:14:15;98969.47;;;11.90;66.63
46111;BME280;31849;55.992;37.252;2023-08-24T21:19:20;98964.22;;;11.92;66.62
46111;BME280;31849;55.992;37.252;2023-08-24T21:24:23;98972.13;;;11.86;66.44
46111;BME280;31849;55.992;37.252;2023-08-24T21:29:27;98968.72;;;11.82;66.62
46111;BME280;31849;55.992;37.252;2023-08-24T21:34:32;98973.84;;;11.88;66.55
46111;BME280;31849;55.992;37.252;2023-08-24T21:39:36;98973.03;;;11.85;66.86
46111;BME280;31849;55.992;37.252;2023-08-24T21:44:39;98973.84;;;11.88;66.93
46111;BME280;31849;55.992;37.252;2023-08-24T21:49:45;98967.69;;;11.95;66.64
46111;BME280;31849;55.992;37.252;2023-08-24T21:54:49;98967.66;;;11.97;66.23
46111;BME280;31849;55.992;37.252;2023-08-24T21:59:52;98976.34;;;11.96;66.22
46111;BME280;31849;55.992;37.252;2023-08-24T22:04:57;98976.31;;;11.98;66.62
46111;BME280;31849;55.992;37.252;2023-08-24T22:10:01;98983.28;;;11.97;66.47
46111;BME280;31849;55.992;37.252;2023-08-24T22:15:05;98984.03;;;12.04;65.69
46111;BME280;31849;55.992;37.252;2023-08-24T22:20:11;98978.25;;;11.85;66.52
46111;BME280;31849;55.992;37.252;2023-08-24T22:25:16;98977.56;;;11.72;66.67
46111;BME280;31849;55.992;37.252;2023-08-24T22:30:21;98982.00;;;11.64;66.79
46111;BME280;31849;55.992;37.252;2023-08-24T22:35:28;98982.00;;;11.64;67.20
46111;BME280;31849;55.992;37.252;2023-08-24T22:40:32;98985.63;;;11.53;67.17
46111;BME280;31849;55.992;37.252;2023-08-24T22:45:37;98989.16;;;11.51;67.18
46111;BME280;31849;55.992;37.252;2023-08-24T22:50:42;98982.34;;;11.42;67.25
46111;BME280;31849;55.992;37.252;2023-08-24T22:55:46;98978.22;;;11.25;67.24
46111;BME280;31849;55.992;37.252;2023-08-24T23:00:51;98974.91;;;11.11;67.37
46111;BME280;31849;55.992;37.252;2023-08-24T23:05:56;98985.22;;;11.19;67.52
46111;BME280;31849;55.992;37.252;2023-08-24T23:10:59;98992.34;;;11.06;67.75
46111;BME280;31849;55.992;37.252;2023-08-24T23:16:04;98997.59;;;11.00;67.94
46111;BME280;31849;55.992;37.252;2023-08-24T23:21:09;98984.72;;;10.87;67.97
46111;BME280;31849;55.992;37.252;2023-08-24T23:26:12;98994.31;;;10.84;68.41
46111;BME280;31849;55.992;37.252;2023-08-24T23:31:16;98996.06;;;10.80;68.38
46111;BME280;31849;55.992;37.252;2023-08-24T23:36:21;99002.97;;;10.86;68.26
46111;BME280;31849;55.992;37.252;2023-08-24T23:41:25;98990.84;;;10.83;68.19
46111;BME280;31849;55.992;37.252;2023-08-24T23:46:29;98996.94;;;10.82;68.36
46111;BME280;31849;55.992;37.252;2023-08-24T23:51:35;98999.50;;;10.85;68.26
46111;BME280;31849;55.992;37.252;2023-08-24T23:56:38;98996.09;;;10.79;68.16
